Time;durP1;ratioP1;P1;durP2;ratioP2;P2;SDS_P1;SDS_P2;PMS_P1;PMS_P2;Temp;Humidity;BMP_temperature;BMP_pressure;BME280_temperature;BME280_humidity;BME280_pressure;Samples;Min_cycle;Max_cycle;Signal;HPM_P1;HPM_P2
2022/11/10 00:01:26;;;;;;;14.55;3.67;;;;;;;;;;4999125;28;20487;-61
2022/11/10 00:03:51;;;;;;;10.85;4.05;;;;;;;;;;4975853;28;20038;-61
2022/11/10 00:06:17;;;;;;;12.43;4.10;;;;;;;;;;4979458;28;20037;-61
2022/11/10 00:08:42;;;;;;;9.45;3.63;;;;;;;;;;4981627;28;20197;-61
2022/11/10 00:11:08;;;;;;;14.75;3.88;;;;;;;;;;4989570;28;20042;-61
2022/11/10 00:16:59;;;;;;;12.00;3.70;;;;;;;;;;4989775;28;20395;-61
2022/11/10 00:19:05;;;;;;;12.52;4.47;;;;;;;;;;4973430;28;20093;-61
2022/11/10 00:21:30;;;;;;;11.15;3.53;;;;;;;;;;4971351;28;20070;-61
2022/11/10 00:23:56;;;;;;;12.70;3.63;;;;;;;;;;4997468;28;20025;-61
2022/11/10 00:26:22;;;;;;;14.45;4.25;;;;;;;;;;4995352;28;20089;-62
2022/11/10 00:28:47;;;;;;;17.38;4.32;;;;;;;;;;4987623;28;20482;-62
2022/11/10 00:31:12;;;;;;;10.30;4.18;;;;;;;;;;4985970;28;20035;-62
2022/11/10 00:33:42;;;;;;;16.10;4.05;;;;;;;;;;4982388;28;20116;-61
2022/11/10 00:36:08;;;;;;;12.45;4.20;;;;;;;;;;4973595;28;20042;-61
2022/11/10 00:38:34;;;;;;;8.93;3.70;;;;;;;;;;4981249;28;20049;-60
2022/11/10 00:41:00;;;;;;;10.63;3.45;;;;;;;;;;4990363;28;20034;-61
2022/11/10 00:43:26;;;;;;;12.95;3.85;;;;;;;;;;5021183;28;20030;-61
2022/11/10 00:45:52;;;;;;;10.40;3.88;;;;;;;;;;4985141;28;20038;-62
2022/11/10 00:48:17;;;;;;;12.60;3.30;;;;;;;;;;4971948;28;20038;-62
2022/11/10 00:50:42;;;;;;;12.60;3.60;;;;;;;;;;4972001;28;20031;-62
2022/11/10 00:53:08;;;;;;;12.20;4.10;;;;;;;;;;4971443;28;20440;-62
2022/11/10 00:55:37;;;;;;;10.60;3.65;;;;;;;;;;4989486;28;20073;-62
2022/11/10 00:58:04;;;;;;;10.60;3.75;;;;;;;;;;4978525;28;20063;-61
2022/11/10 01:00:29;;;;;;;12.82;3.70;;;;;;;;;;4984155;28;20038;-61
2022/11/10 01:02:54;;;;;;;10.15;3.50;;;;;;;;;;4973243;28;20027;-62
2022/11/10 01:05:20;;;;;;;11.90;3.70;;;;;;;;;;4975995;28;20064;-62
2022/11/10 01:07:45;;;;;;;12.50;3.75;;;;;;;;;;4989756;28;20038;-61
2022/11/10 01:10:11;;;;;;;9.73;3.15;;;;;;;;;;4989572;28;20030;-62
2022/11/10 01:12:36;;;;;;;13.40;3.60;;;;;;;;;;4975088;28;20042;-61
2022/11/10 01:15:03;;;;;;;9.77;3.30;;;;;;;;;;4977667;28;20034;-61
2022/11/10 01:17:29;;;;;;;14.25;3.50;;;;;;;;;;4989342;28;20046;-62
2022/11/10 01:19:54;;;;;;;11.10;3.20;;;;;;;;;;4976858;28;20039;-62
2022/11/10 01:22:20;;;;;;;10.75;3.20;;;;;;;;;;4975537;28;20472;-61
2022/11/10 01:24:45;;;;;;;12.25;3.30;;;;;;;;;;4983745;28;20029;-62
2022/11/10 01:27:10;;;;;;;8.65;3.13;;;;;;;;;;4993574;28;20443;-61
2022/11/10 01:29:36;;;;;;;10.15;3.10;;;;;;;;;;4987852;28;20145;-62
2022/11/10 01:32:01;;;;;;;12.68;3.70;;;;;;;;;;4975619;28;20101;-61
2022/11/10 01:34:26;;;;;;;10.45;3.30;;;;;;;;;;4989788;28;20049;-61
2022/11/10 01:36:52;;;;;;;12.52;3.70;;;;;;;;;;4989080;28;20034;-61
2022/11/10 01:39:17;;;;;;;18.33;3.63;;;;;;;;;;4983491;28;20463;-61
2022/11/10 01:41:43;;;;;;;13.75;3.85;;;;;;;;;;4979361;28;20410;-61
2022/11/10 01:44:20;;;;;;;12.55;3.45;;;;;;;;;;4975763;28;20035;-60
2022/11/10 01:46:45;;;;;;;9.25;3.33;;;;;;;;;;4973514;28;20034;-61
2022/11/10 01:49:14;;;;;;;13.85;3.28;;;;;;;;;;4975815;28;20057;-61
2022/11/10 01:51:54;;;;;;;15.45;3.75;;;;;;;;;;4977466;28;20039;-61
2022/11/10 01:54:26;;;;;;;12.82;3.28;;;;;;;;;;4975710;28;20062;-61
2022/11/10 01:56:57;;;;;;;12.95;3.10;;;;;;;;;;4978077;28;20041;-61
2022/11/10 01:59:27;;;;;;;8.15;3.10;;;;;;;;;;4980555;28;20042;-61
2022/11/10 02:01:57;;;;;;;11.30;3.20;;;;;;;;;;4986945;28;20307;-60
2022/11/10 02:04:24;;;;;;;13.45;2.95;;;;;;;;;;4979353;28;20046;-60
2022/11/10 02:06:50;;;;;;;10.73;3.55;;;;;;;;;;4974427;28;20054;-60
2022/11/10 02:09:16;;;;;;;8.65;2.90;;;;;;;;;;4987055;28;20088;-61
2022/11/10 02:11:43;;;;;;;15.70;3.65;;;;;;;;;;4987291;28;20026;-61
2022/11/10 02:14:08;;;;;;;17.10;3.20;;;;;;;;;;4979143;28;20022;-62
2022/11/10 02:16:35;;;;;;;9.18;2.90;;;;;;;;;;4976541;28;20053;-62
2022/11/10 02:19:24;;;;;;;7.57;2.35;;;;;;;;;;4993482;28;20069;-62
2022/11/10 02:21:49;;;;;;;8.68;2.63;;;;;;;;;;4974945;28;20038;-62
2022/11/10 02:24:15;;;;;;;9.25;2.70;;;;;;;;;;4985920;28;20395;-62
2022/11/10 02:26:55;;;;;;;13.95;3.17;;;;;;;;;;4991905;28;20106;-62
2022/11/10 02:29:22;;;;;;;12.60;3.28;;;;;;;;;;4989931;28;20134;-62
2022/11/10 02:31:47;;;;;;;10.57;3.25;;;;;;;;;;4984772;28;20091;-62
2022/11/10 02:34:13;;;;;;;12.23;2.92;;;;;;;;;;4975533;28;20157;-62
2022/11/10 02:36:38;;;;;;;14.65;3.38;;;;;;;;;;4992597;28;20038;-62
2022/11/10 02:39:03;;;;;;;15.80;3.67;;;;;;;;;;4985326;28;20030;-62
2022/11/10 02:41:29;;;;;;;13.05;3.10;;;;;;;;;;4991507;28;20062;-62
2022/11/10 02:43:55;;;;;;;13.13;3.45;;;;;;;;;;5002063;28;20480;-62
2022/11/10 02:46:21;;;;;;;10.00;3.10;;;;;;;;;;4979487;28;20053;-61
2022/11/10 02:48:46;;;;;;;12.15;3.63;;;;;;;;;;4977971;28;20459;-61
2022/11/10 02:51:12;;;;;;;9.48;3.08;;;;;;;;;;4992004;28;20030;-60
2022/11/10 02:53:37;;;;;;;16.20;3.80;;;;;;;;;;4993044;28;20150;-62
2022/11/10 02:56:03;;;;;;;13.18;3.30;;;;;;;;;;4982150;28;20971;-60
2022/11/10 02:58:28;;;;;;;8.65;2.88;;;;;;;;;;4994620;28;20071;-62
2022/11/10 03:00:53;;;;;;;15.40;3.88;;;;;;;;;;4983159;28;20125;-62
2022/11/10 03:03:19;;;;;;;15.77;3.33;;;;;;;;;;4990590;28;20463;-62
2022/11/10 03:05:44;;;;;;;14.25;2.90;;;;;;;;;;4981482;28;20046;-64
2022/11/10 03:08:09;;;;;;;12.98;3.08;;;;;;;;;;4977711;28;20031;-62
2022/11/10 03:10:35;;;;;;;9.70;2.78;;;;;;;;;;4980490;28;20383;-62
2022/11/10 03:13:01;;;;;;;13.55;3.05;;;;;;;;;;4993103;28;20037;-62
2022/11/10 03:15:27;;;;;;;12.93;3.30;;;;;;;;;;4990248;28;20120;-61
2022/11/10 03:17:52;;;;;;;9.25;3.10;;;;;;;;;;4989173;28;20053;-61
2022/11/10 03:20:18;;;;;;;12.38;2.70;;;;;;;;;;4983707;28;20034;-61
2022/11/10 03:22:44;;;;;;;7.97;2.80;;;;;;;;;;4972498;28;20087;-61
2022/11/10 03:25:10;;;;;;;11.18;3.40;;;;;;;;;;4981992;28;20057;-61
2022/11/10 03:27:36;;;;;;;8.60;2.60;;;;;;;;;;4973076;28;20023;-61
2022/11/10 03:30:02;;;;;;;12.07;3.10;;;;;;;;;;4982652;28;20360;-61
2022/11/10 03:32:27;;;;;;;8.25;2.78;;;;;;;;;;4981803;28;20031;-61
2022/11/10 03:34:53;;;;;;;13.95;2.90;;;;;;;;;;4982952;28;20049;-61
2022/11/10 03:37:18;;;;;;;13.75;3.30;;;;;;;;;;4984287;28;20023;-61
2022/11/10 03:39:43;;;;;;;10.57;2.90;;;;;;;;;;4972238;28;20487;-61
2022/11/10 03:42:09;;;;;;;13.50;2.80;;;;;;;;;;4972741;28;20038;-61
2022/11/10 03:44:34;;;;;;;11.35;3.00;;;;;;;;;;4989808;28;20041;-61
2022/11/10 03:47:01;;;;;;;12.52;2.90;;;;;;;;;;4973490;28;20373;-60
2022/11/10 03:49:27;;;;;;;15.13;3.30;;;;;;;;;;4971029;28;20046;-61
2022/11/10 03:51:52;;;;;;;14.65;3.38;;;;;;;;;;4989461;28;20034;-60
2022/11/10 03:54:18;;;;;;;13.20;2.95;;;;;;;;;;4990478;28;20184;-61
2022/11/10 03:56:43;;;;;;;11.07;2.85;;;;;;;;;;4984309;28;20065;-61
2022/11/10 03:59:08;;;;;;;15.10;3.30;;;;;;;;;;4973800;28;20038;-60
2022/11/10 04:01:34;;;;;;;15.10;3.08;;;;;;;;;;4988445;28;20062;-61
2022/11/10 04:03:59;;;;;;;15.48;3.30;;;;;;;;;;4982247;28;20039;-60
2022/11/10 04:09:09;;;;;;;8.30;2.53;;;;;;;;;;4987820;28;20065;-61
2022/11/10 04:17:02;;;;;;;13.57;3.05;;;;;;;;;;4987198;28;20040;-61
2022/11/10 04:19:28;;;;;;;17.10;3.45;;;;;;;;;;4982250;28;20117;-61
2022/11/10 04:21:53;;;;;;;11.85;2.90;;;;;;;;;;4975047;28;20466;-61
2022/11/10 04:24:19;;;;;;;19.00;3.72;;;;;;;;;;4992242;28;20375;-60
2022/11/10 04:26:46;;;;;;;11.48;2.78;;;;;;;;;;4973636;28;20298;-60
2022/11/10 04:29:12;;;;;;;11.85;3.22;;;;;;;;;;4982529;28;20030;-61
2022/11/10 04:31:39;;;;;;;9.27;3.05;;;;;;;;;;4982379;28;20125;-61
2022/11/10 04:34:07;;;;;;;14.13;3.65;;;;;;;;;;4984172;28;20034;-61
2022/11/10 04:36:34;;;;;;;13.35;3.30;;;;;;;;;;4970382;28;20046;-62
2022/11/10 04:39:00;;;;;;;9.98;3.05;;;;;;;;;;4987154;28;20034;-61
2022/11/10 04:41:27;;;;;;;15.48;3.70;;;;;;;;;;4978701;28;20041;-61
2022/11/10 04:43:53;;;;;;;15.13;3.63;;;;;;;;;;4981219;28;20118;-61
2022/11/10 04:46:36;;;;;;;12.07;3.28;;;;;;;;;;4985332;28;20205;-62
2022/11/10 04:49:03;;;;;;;15.30;3.15;;;;;;;;;;4985452;28;20189;-61
2022/11/10 04:51:31;;;;;;;13.77;3.60;;;;;;;;;;4980969;28;20550;-62
2022/11/10 04:53:56;;;;;;;14.23;3.78;;;;;;;;;;4989795;28;20037;-62
2022/11/10 04:56:23;;;;;;;13.20;3.25;;;;;;;;;;4982418;28;20035;-61
2022/11/10 04:58:49;;;;;;;16.50;3.28;;;;;;;;;;4974664;28;20038;-62
2022/11/10 05:01:17;;;;;;;11.13;3.28;;;;;;;;;;4986226;28;20129;-62
2022/11/10 05:03:44;;;;;;;12.07;2.83;;;;;;;;;;4974570;28;20025;-61
2022/11/10 05:06:10;;;;;;;13.15;2.90;;;;;;;;;;4990148;28;20034;-61
2022/11/10 05:08:37;;;;;;;13.82;3.38;;;;;;;;;;4976561;28;20034;-61
2022/11/10 05:11:02;;;;;;;9.30;3.67;;;;;;;;;;4972396;28;20027;-61
2022/11/10 05:13:28;;;;;;;18.08;3.30;;;;;;;;;;5011430;28;20499;-60
2022/11/10 05:15:53;;;;;;;14.98;3.20;;;;;;;;;;4975356;28;20051;-61
2022/11/10 05:18:19;;;;;;;17.60;3.22;;;;;;;;;;4974748;28;20042;-62
2022/11/10 05:20:44;;;;;;;12.65;3.53;;;;;;;;;;4976255;28;20038;-60
2022/11/10 05:25:54;;;;;;;12.00;2.80;;;;;;;;;;4988968;28;20073;-61
2022/11/10 05:28:19;;;;;;;15.20;3.50;;;;;;;;;;4983277;28;20066;-61
2022/11/10 05:30:45;;;;;;;10.63;2.75;;;;;;;;;;4986911;28;20488;-61
2022/11/10 05:33:10;;;;;;;12.13;3.10;;;;;;;;;;4982323;28;20049;-62
2022/11/10 05:35:36;;;;;;;15.88;3.72;;;;;;;;;;4974886;28;20034;-62
2022/11/10 05:38:02;;;;;;;11.32;3.42;;;;;;;;;;4989411;28;20042;-63
2022/11/10 05:40:28;;;;;;;10.82;2.70;;;;;;;;;;4987807;28;20042;-61
2022/11/10 05:42:53;;;;;;;14.27;3.63;;;;;;;;;;4988098;28;20561;-62
2022/11/10 05:45:21;;;;;;;9.68;3.33;;;;;;;;;;4979958;28;20037;-62
2022/11/10 05:47:47;;;;;;;10.75;3.65;;;;;;;;;;4972150;28;20051;-62
2022/11/10 05:50:12;;;;;;;15.23;4.05;;;;;;;;;;4973894;28;20061;-62
2022/11/10 05:52:43;;;;;;;16.30;3.50;;;;;;;;;;4981797;28;20047;-62
2022/11/10 05:55:08;;;;;;;16.30;3.28;;;;;;;;;;4975601;28;20030;-62
2022/11/10 05:57:34;;;;;;;7.65;2.53;;;;;;;;;;4986919;28;20041;-62
2022/11/10 05:59:59;;;;;;;14.07;3.40;;;;;;;;;;4978780;28;20057;-60
2022/11/10 06:02:25;;;;;;;9.18;3.33;;;;;;;;;;4985953;28;20029;-62
2022/11/10 06:04:50;;;;;;;14.00;3.25;;;;;;;;;;4993254;28;20503;-60
2022/11/10 06:07:15;;;;;;;9.48;2.85;;;;;;;;;;4994289;28;20375;-62
2022/11/10 06:09:41;;;;;;;12.93;2.60;;;;;;;;;;4994703;28;20062;-62
2022/11/10 06:12:06;;;;;;;19.50;3.45;;;;;;;;;;4994313;28;20045;-62
2022/11/10 06:14:32;;;;;;;17.30;2.97;;;;;;;;;;4983254;28;20034;-61
2022/11/10 06:16:57;;;;;;;12.43;2.80;;;;;;;;;;4993802;28;20164;-61
2022/11/10 06:19:23;;;;;;;13.70;2.70;;;;;;;;;;4994501;28;20054;-61
2022/11/10 06:21:48;;;;;;;19.33;3.45;;;;;;;;;;4984151;28;20410;-61
2022/11/10 06:24:13;;;;;;;13.45;2.67;;;;;;;;;;4986094;28;20042;-61
2022/11/10 06:26:39;;;;;;;13.15;3.05;;;;;;;;;;4993662;28;20040;-62
2022/11/10 06:29:04;;;;;;;12.15;3.42;;;;;;;;;;4993841;28;20470;-62
2022/11/10 06:31:29;;;;;;;14.20;3.38;;;;;;;;;;4989773;28;20037;-62
2022/11/10 06:33:55;;;;;;;15.90;2.97;;;;;;;;;;4989578;28;20034;-62
2022/11/10 06:36:21;;;;;;;13.93;2.92;;;;;;;;;;4982520;28;20061;-62
2022/11/10 06:38:46;;;;;;;26.50;5.80;;;;;;;;;;4984023;28;20037;-62
2022/11/10 06:41:12;;;;;;;9.65;3.00;;;;;;;;;;4993649;28;20391;-62
2022/11/10 06:43:37;;;;;;;12.35;2.75;;;;;;;;;;4992726;28;20460;-63
2022/11/10 06:46:03;;;;;;;12.20;2.60;;;;;;;;;;4991311;28;20042;-63
2022/11/10 06:48:28;;;;;;;13.10;3.28;;;;;;;;;;4980420;28;20026;-61
2022/11/10 06:50:54;;;;;;;16.95;2.97;;;;;;;;;;4993864;28;20030;-63
2022/11/10 06:53:19;;;;;;;9.02;2.55;;;;;;;;;;4992298;28;20383;-63
2022/11/10 06:55:44;;;;;;;18.33;3.05;;;;;;;;;;4992453;28;20042;-64
2022/11/10 06:58:10;;;;;;;13.13;2.80;;;;;;;;;;4990663;28;20110;-63
2022/11/10 07:00:35;;;;;;;9.43;2.55;;;;;;;;;;4989683;28;20031;-62
2022/11/10 07:03:03;;;;;;;11.10;2.55;;;;;;;;;;4986116;28;20041;-63
2022/11/10 07:05:29;;;;;;;15.27;2.95;;;;;;;;;;4992588;28;20023;-62
2022/11/10 07:07:54;;;;;;;12.32;2.75;;;;;;;;;;4992100;28;20076;-62
2022/11/10 07:10:19;;;;;;;13.40;3.00;;;;;;;;;;4980220;28;20035;-63
2022/11/10 07:12:45;;;;;;;17.60;2.90;;;;;;;;;;4983700;28;20178;-63
2022/11/10 07:15:10;;;;;;;12.30;2.78;;;;;;;;;;4991660;28;20049;-62
2022/11/10 07:17:40;;;;;;;15.82;2.97;;;;;;;;;;4992147;28;20030;-62
2022/11/10 07:20:06;;;;;;;13.13;2.60;;;;;;;;;;4993347;28;20026;-62
2022/11/10 07:22:32;;;;;;;12.55;3.25;;;;;;;;;;4977211;28;20396;-63
2022/11/10 07:24:57;;;;;;;12.90;2.90;;;;;;;;;;4992681;28;20030;-63
2022/11/10 07:27:22;;;;;;;12.75;2.50;;;;;;;;;;4992240;28;20121;-63
2022/11/10 07:29:48;;;;;;;16.98;2.70;;;;;;;;;;4996896;28;20035;-63
2022/11/10 07:32:13;;;;;;;17.02;2.95;;;;;;;;;;4980721;28;20042;-63
2022/11/10 07:34:39;;;;;;;12.68;2.72;;;;;;;;;;4991262;28;20035;-64
2022/11/10 07:37:04;;;;;;;12.02;2.88;;;;;;;;;;5011931;28;20415;-63
2022/11/10 07:39:30;;;;;;;14.13;3.00;;;;;;;;;;5001946;28;20487;-65
2022/11/10 07:41:56;;;;;;;10.18;2.95;;;;;;;;;;4977949;28;20033;-64
2022/11/10 07:44:22;;;;;;;17.02;2.92;;;;;;;;;;4992290;28;20037;-63
2022/11/10 07:46:47;;;;;;;14.13;2.90;;;;;;;;;;4991498;28;20030;-63
2022/11/10 07:49:13;;;;;;;12.18;2.80;;;;;;;;;;4992223;28;20041;-64
2022/11/10 07:51:38;;;;;;;12.35;2.72;;;;;;;;;;4985487;28;20377;-63
2022/11/10 07:54:04;;;;;;;10.98;2.63;;;;;;;;;;4973997;28;20058;-62
2022/11/10 07:56:29;;;;;;;9.43;2.70;;;;;;;;;;4987685;28;20046;-64
2022/11/10 07:58:54;;;;;;;11.00;2.88;;;;;;;;;;4981473;28;20026;-62
2022/11/10 08:01:20;;;;;;;16.83;3.17;;;;;;;;;;4977528;28;20034;-62
2022/11/10 08:03:45;;;;;;;12.57;2.63;;;;;;;;;;4997410;28;20092;-63
2022/11/10 08:06:11;;;;;;;15.30;3.05;;;;;;;;;;5012729;28;20471;-62
2022/11/10 08:08:36;;;;;;;13.25;2.67;;;;;;;;;;4990983;28;20031;-63
2022/11/10 08:11:01;;;;;;;13.10;2.60;;;;;;;;;;4987413;28;20463;-63
2022/11/10 08:13:27;;;;;;;8.85;2.35;;;;;;;;;;4990674;28;20034;-64
2022/11/10 08:15:52;;;;;;;12.05;2.67;;;;;;;;;;4981695;28;20515;-62
2022/11/10 08:18:20;;;;;;;14.43;2.97;;;;;;;;;;4973115;28;20027;-63
2022/11/10 08:20:46;;;;;;;9.07;2.22;;;;;;;;;;4972501;28;20065;-62
2022/11/10 08:23:11;;;;;;;8.65;2.58;;;;;;;;;;4988404;28;20084;-63
2022/11/10 08:25:37;;;;;;;11.23;2.60;;;;;;;;;;4988947;28;20038;-63
2022/11/10 08:28:11;;;;;;;11.05;2.03;;;;;;;;;;5011961;28;20530;-63
2022/11/10 08:30:39;;;;;;;9.35;2.55;;;;;;;;;;5011787;28;20034;-71
2022/11/10 08:33:06;;;;;;;11.20;2.00;;;;;;;;;;4991448;28;20038;-62
2022/11/10 08:35:38;;;;;;;12.13;2.58;;;;;;;;;;4991470;28;20152;-63
2022/11/10 08:38:12;;;;;;;12.55;3.15;;;;;;;;;;4979433;28;20502;-64
2022/11/10 08:40:38;;;;;;;9.18;2.42;;;;;;;;;;4978707;28;20101;-65
2022/11/10 08:43:08;;;;;;;13.20;2.75;;;;;;;;;;4972468;28;20511;-64
2022/11/10 08:45:38;;;;;;;14.10;3.03;;;;;;;;;;4978385;28;20056;-63
2022/11/10 08:48:05;;;;;;;11.88;2.40;;;;;;;;;;4981652;28;20034;-63
2022/11/10 08:50:31;;;;;;;12.25;2.60;;;;;;;;;;5003344;28;20101;-62
2022/11/10 08:53:01;;;;;;;11.50;2.42;;;;;;;;;;4977440;28;20030;-62
2022/11/10 08:55:26;;;;;;;9.13;2.75;;;;;;;;;;4971122;28;20039;-63
2022/11/10 08:57:51;;;;;;;10.02;2.40;;;;;;;;;;4981284;28;20031;-63
2022/11/10 09:00:17;;;;;;;14.38;2.20;;;;;;;;;;4981975;28;20688;-63
2022/11/10 09:02:42;;;;;;;14.25;2.53;;;;;;;;;;4972648;28;20361;-63
2022/11/10 09:05:08;;;;;;;11.45;2.67;;;;;;;;;;4972860;28;20074;-63
2022/11/10 09:07:42;;;;;;;11.77;2.58;;;;;;;;;;4970646;28;20042;-63
2022/11/10 09:10:07;;;;;;;11.35;2.70;;;;;;;;;;4972455;28;20031;-63
2022/11/10 09:12:33;;;;;;;12.50;2.70;;;;;;;;;;4971851;28;20053;-64
2022/11/10 09:14:58;;;;;;;15.05;2.40;;;;;;;;;;4972861;28;20043;-65
2022/11/10 09:17:23;;;;;;;10.07;2.65;;;;;;;;;;4972004;28;20126;-63
2022/11/10 09:19:49;;;;;;;14.77;2.53;;;;;;;;;;4972024;28;20487;-63
2022/11/10 09:22:14;;;;;;;10.85;2.70;;;;;;;;;;4987360;28;20047;-63
2022/11/10 09:24:39;;;;;;;10.70;2.60;;;;;;;;;;4971706;28;20039;-62
2022/11/10 09:27:05;;;;;;;12.48;3.15;;;;;;;;;;4975750;28;20034;-64
2022/11/10 09:29:30;;;;;;;11.43;2.38;;;;;;;;;;4986410;28;20127;-64
2022/11/10 09:31:55;;;;;;;9.68;2.33;;;;;;;;;;4982299;28;20034;-65
2022/11/10 09:34:21;;;;;;;12.65;2.83;;;;;;;;;;4995757;28;20464;-65
2022/11/10 09:36:46;;;;;;;7.25;2.05;;;;;;;;;;4991914;28;20465;-64
2022/11/10 09:39:12;;;;;;;9.70;2.30;;;;;;;;;;4994997;28;20038;-63
2022/11/10 09:41:39;;;;;;;15.15;3.17;;;;;;;;;;4994835;28;20027;-64
2022/11/10 09:44:18;;;;;;;14.35;2.40;;;;;;;;;;4995711;28;20085;-63
2022/11/10 09:47:08;;;;;;;11.23;2.53;;;;;;;;;;4994745;28;20269;-63
2022/11/10 09:49:44;;;;;;;14.20;3.50;;;;;;;;;;4994876;28;20092;-63
2022/11/10 09:52:11;;;;;;;13.57;2.65;;;;;;;;;;4995558;28;20034;-63
2022/11/10 09:54:44;;;;;;;13.23;2.40;;;;;;;;;;4993798;28;20030;-63
2022/11/10 09:57:15;;;;;;;12.25;2.60;;;;;;;;;;4986842;28;20058;-62
2022/11/10 09:59:42;;;;;;;10.32;2.50;;;;;;;;;;4975000;28;20031;-64
2022/11/10 10:02:24;;;;;;;6.95;2.03;;;;;;;;;;4986724;28;20026;-64
2022/11/10 10:05:11;;;;;;;12.00;2.35;;;;;;;;;;4995214;28;20028;-63
2022/11/10 10:07:42;;;;;;;11.13;2.22;;;;;;;;;;4982783;28;20038;-63
2022/11/10 10:10:20;;;;;;;10.15;2.92;;;;;;;;;;4988347;28;20034;-63
2022/11/10 10:12:58;;;;;;;13.52;2.47;;;;;;;;;;4994713;28;20026;-63
2022/11/10 10:15:41;;;;;;;12.10;2.05;;;;;;;;;;4994800;28;20463;-64
2022/11/10 10:18:06;;;;;;;12.45;2.20;;;;;;;;;;4995024;28;20038;-64
2022/11/10 10:21:09;;;;;;;8.20;2.08;;;;;;;;;;4992946;28;20471;-64
2022/11/10 10:23:49;;;;;;;15.20;2.72;;;;;;;;;;4990835;28;20069;-64
2022/11/10 10:26:17;;;;;;;13.05;3.15;;;;;;;;;;4991046;28;20038;-63
2022/11/10 10:28:47;;;;;;;10.32;2.10;;;;;;;;;;5025507;28;20031;-64
2022/11/10 10:31:18;;;;;;;9.67;2.27;;;;;;;;;;4995853;28;20066;-63
2022/11/10 10:33:45;;;;;;;14.05;3.00;;;;;;;;;;4997002;28;20254;-63
2022/11/10 10:36:28;;;;;;;10.27;2.33;;;;;;;;;;4995867;28;20391;-63
2022/11/10 10:39:03;;;;;;;13.52;2.60;;;;;;;;;;4995602;28;20038;-63
2022/11/10 10:41:31;;;;;;;12.68;2.63;;;;;;;;;;4995685;28;20034;-63
2022/11/10 10:44:01;;;;;;;11.35;2.30;;;;;;;;;;4994690;28;20033;-62
2022/11/10 10:46:30;;;;;;;11.10;2.22;;;;;;;;;;4993696;28;20037;-63
2022/11/10 10:49:19;;;;;;;7.53;1.83;;;;;;;;;;4994523;28;20033;-62
2022/11/10 10:51:44;;;;;;;13.65;2.90;;;;;;;;;;4993668;28;20054;-63
2022/11/10 10:54:30;;;;;;;9.32;2.30;;;;;;;;;;4992406;28;20112;-63
2022/11/10 10:57:05;;;;;;;13.25;2.67;;;;;;;;;;5018526;28;20468;-63
2022/11/10 10:59:32;;;;;;;13.45;1.98;;;;;;;;;;4993410;28;20065;-63
2022/11/10 11:01:58;;;;;;;12.35;2.30;;;;;;;;;;4994242;28;20026;-63
2022/11/10 11:04:28;;;;;;;9.40;2.15;;;;;;;;;;4992642;28;20172;-63
2022/11/10 11:06:59;;;;;;;9.35;2.10;;;;;;;;;;4994176;28;20031;-62
2022/11/10 11:09:38;;;;;;;10.00;2.40;;;;;;;;;;4975389;28;20047;-62
2022/11/10 11:12:11;;;;;;;10.05;2.88;;;;;;;;;;4974795;28;20030;-62
2022/11/10 11:14:37;;;;;;;10.90;2.17;;;;;;;;;;4973951;28;20494;-62
2022/11/10 11:17:12;;;;;;;13.93;2.38;;;;;;;;;;4974464;28;20035;-63
2022/11/10 11:19:38;;;;;;;8.30;2.03;;;;;;;;;;4973628;28;20031;-62
2022/11/10 11:22:15;;;;;;;12.05;2.78;;;;;;;;;;4974356;28;20043;-63
2022/11/10 11:24:41;;;;;;;11.23;2.10;;;;;;;;;;4979026;28;20038;-63
2022/11/10 11:27:20;;;;;;;12.20;2.20;;;;;;;;;;4993852;28;20036;-63
2022/11/10 11:30:18;;;;;;;12.60;2.20;;;;;;;;;;4992830;28;20469;-62
2022/11/10 11:33:24;;;;;;;10.23;2.05;;;;;;;;;;4992658;28;20042;-63
2022/11/10 11:36:12;;;;;;;7.55;2.13;;;;;;;;;;4977842;28;20092;-63
2022/11/10 11:38:44;;;;;;;12.05;2.50;;;;;;;;;;4990286;28;20034;-63
2022/11/10 11:41:37;;;;;;;12.02;2.80;;;;;;;;;;4992501;28;20108;-63
2022/11/10 11:44:17;;;;;;;10.23;2.05;;;;;;;;;;4993475;28;20791;-63
2022/11/10 11:47:18;;;;;;;;;;;;;;;;;;4992853;28;20039;-63
2022/11/10 11:50:13;;;;;;;9.30;1.90;;;;;;;;;;4989335;28;19909;-63
2022/11/10 11:53:01;;;;;;;10.10;2.38;;;;;;;;;;4984280;28;20069;-63
2022/11/10 11:56:04;;;;;;;10.45;2.33;;;;;;;;;;4972751;28;20399;-63
2022/11/10 11:58:52;;;;;;;8.05;2.05;;;;;;;;;;4972996;28;20043;-63
2022/11/10 12:01:55;;;;;;;8.02;2.15;;;;;;;;;;4973738;28;20030;-63
2022/11/10 12:04:48;;;;;;;10.13;1.73;;;;;;;;;;4973724;28;20038;-64
2022/11/10 12:07:41;;;;;;;11.32;2.30;;;;;;;;;;4979391;28;20383;-63
2022/11/10 12:10:21;;;;;;;11.77;2.13;;;;;;;;;;4992799;28;20038;-63
2022/11/10 12:13:20;;;;;;;7.97;2.13;;;;;;;;;;4992170;28;20492;-63
2022/11/10 12:15:54;;;;;;;11.23;1.90;;;;;;;;;;4991882;28;20030;-62
2022/11/10 12:18:44;;;;;;;11.07;1.88;;;;;;;;;;4992591;28;20138;-63
2022/11/10 12:21:19;;;;;;;8.60;2.08;;;;;;;;;;4974071;28;20049;-62
2022/11/10 12:23:47;;;;;;;4.47;1.50;;;;;;;;;;4990389;28;20128;-62
2022/11/10 12:26:24;;;;;;;9.82;2.10;;;;;;;;;;4992729;28;20476;-63
2022/11/10 12:28:59;;;;;;;10.82;2.85;;;;;;;;;;4992683;28;20070;-62
2022/11/10 12:31:30;;;;;;;10.48;1.92;;;;;;;;;;4991928;28;20081;-62
2022/11/10 12:34:00;;;;;;;6.43;1.50;;;;;;;;;;4990522;28;20098;-63
2022/11/10 12:36:28;;;;;;;6.60;1.65;;;;;;;;;;4991732;28;20100;-63
2022/11/10 12:39:14;;;;;;;12.95;2.05;;;;;;;;;;4992265;28;20089;-63
2022/11/10 12:41:48;;;;;;;6.43;1.60;;;;;;;;;;4990110;28;20384;-63
2022/11/10 12:44:38;;;;;;;8.32;2.10;;;;;;;;;;4984124;28;20426;-62
2022/11/10 12:47:14;;;;;;;5.57;1.60;;;;;;;;;;4991762;28;20058;-63
2022/11/10 12:49:52;;;;;;;8.77;2.25;;;;;;;;;;4985022;28;20531;-62
2022/11/10 12:52:30;;;;;;;8.00;1.85;;;;;;;;;;4973018;28;20140;-63
2022/11/10 12:54:56;;;;;;;8.73;1.92;;;;;;;;;;4973057;28;20039;-64
2022/11/10 12:57:25;;;;;;;12.02;2.00;;;;;;;;;;4972813;28;20029;-63
2022/11/10 13:00:11;;;;;;;9.93;2.13;;;;;;;;;;4991187;28;20065;-62
2022/11/10 13:02:42;;;;;;;7.88;1.90;;;;;;;;;;4988593;28;20058;-63
2022/11/10 13:05:13;;;;;;;10.70;1.90;;;;;;;;;;4980734;28;20037;-63
2022/11/10 13:07:41;;;;;;;9.32;1.88;;;;;;;;;;5002592;28;20054;-64
2022/11/10 13:10:24;;;;;;;10.25;2.00;;;;;;;;;;4972330;28;20476;-63
2022/11/10 13:13:05;;;;;;;9.13;1.70;;;;;;;;;;4990402;28;20797;-63
2022/11/10 13:15:36;;;;;;;10.02;1.90;;;;;;;;;;4990989;28;20031;-63
2022/11/10 13:18:03;;;;;;;10.93;2.45;;;;;;;;;;4992312;28;20042;-63
2022/11/10 13:20:40;;;;;;;6.85;1.60;;;;;;;;;;4990164;28;20034;-63
2022/11/10 13:23:24;;;;;;;6.03;1.70;;;;;;;;;;4989703;28;20047;-63
2022/11/10 13:25:52;;;;;;;9.40;1.75;;;;;;;;;;4990680;28;20054;-63
2022/11/10 13:28:46;;;;;;;9.77;2.08;;;;;;;;;;4991941;28;20034;-67
2022/11/10 13:31:26;;;;;;;8.85;1.90;;;;;;;;;;4980279;28;20019;-64
2022/11/10 13:34:17;;;;;;;6.07;1.55;;;;;;;;;;4990796;28;20390;-64
2022/11/10 13:36:46;;;;;;;;;;;;;;;;;;5014035;28;20498;-64
2022/11/10 13:39:18;;;;;;;5.40;1.65;;;;;;;;;;4986130;28;19914;-64
2022/11/10 13:41:52;;;;;;;2.88;1.02;;;;;;;;;;4991092;28;20042;-65
2022/11/10 13:44:26;;;;;;;7.78;1.80;;;;;;;;;;4985057;28;20077;-61
2022/11/10 13:47:03;;;;;;;7.20;1.60;;;;;;;;;;4971677;28;20039;-60
2022/11/10 13:49:40;;;;;;;7.10;1.45;;;;;;;;;;4976181;28;20112;-61
2022/11/10 13:52:35;;;;;;;6.43;1.50;;;;;;;;;;4991763;28;20042;-60
2022/11/10 13:55:24;;;;;;;6.07;1.40;;;;;;;;;;4981450;28;20077;-64
2022/11/10 13:57:59;;;;;;;8.10;1.60;;;;;;;;;;4985785;28;20041;-64
2022/11/10 14:00:28;;;;;;;7.18;1.70;;;;;;;;;;4991101;28;20039;-64
2022/11/10 14:03:01;;;;;;;6.28;1.50;;;;;;;;;;4984807;28;20035;-64
2022/11/10 14:05:27;;;;;;;4.38;1.40;;;;;;;;;;4990492;28;20046;-64
2022/11/10 14:08:00;;;;;;;7.75;1.60;;;;;;;;;;4990308;28;20037;-63
2022/11/10 14:10:38;;;;;;;7.90;1.67;;;;;;;;;;4987312;28;20434;-64
2022/11/10 14:13:11;;;;;;;8.15;1.52;;;;;;;;;;4990732;28;20410;-65
2022/11/10 14:15:40;;;;;;;6.68;1.20;;;;;;;;;;4983638;28;20068;-65
2022/11/10 14:18:24;;;;;;;6.13;1.80;;;;;;;;;;4992876;28;20121;-64
2022/11/10 14:20:58;;;;;;;4.82;1.63;;;;;;;;;;4984683;28;20042;-65
2022/11/10 14:23:30;;;;;;;7.00;1.55;;;;;;;;;;4975091;28;20423;-66
2022/11/10 14:26:02;;;;;;;6.93;1.42;;;;;;;;;;4979591;28;20257;-65
2022/11/10 14:28:33;;;;;;;3.97;1.30;;;;;;;;;;4987557;28;20034;-65
2022/11/10 14:30:58;;;;;;;3.28;1.25;;;;;;;;;;4994497;28;20026;-65
2022/11/10 14:33:25;;;;;;;9.88;1.90;;;;;;;;;;4991422;28;20057;-65
2022/11/10 14:35:55;;;;;;;5.15;1.38;;;;;;;;;;4990314;28;20038;-64
2022/11/10 14:38:36;;;;;;;4.53;1.35;;;;;;;;;;4993714;28;20031;-65
2022/11/10 14:41:04;;;;;;;5.55;1.45;;;;;;;;;;4990468;28;20038;-64
2022/11/10 14:43:35;;;;;;;7.65;1.52;;;;;;;;;;4974305;28;20045;-64
2022/11/10 14:46:01;;;;;;;5.88;1.20;;;;;;;;;;4974709;28;20480;-65
2022/11/10 14:48:30;;;;;;;7.53;1.33;;;;;;;;;;4989157;28;20357;-64
2022/11/10 14:51:03;;;;;;;7.43;1.60;;;;;;;;;;4981294;28;20448;-64
2022/11/10 14:53:37;;;;;;;6.72;1.35;;;;;;;;;;4993699;28;20034;-64
2022/11/10 14:56:13;;;;;;;7.63;1.13;;;;;;;;;;4988871;28;20498;-65
2022/11/10 14:58:41;;;;;;;6.72;1.70;;;;;;;;;;4988769;28;20030;-64
2022/11/10 15:01:33;;;;;;;4.95;1.42;;;;;;;;;;4993117;28;20364;-64
2022/11/10 15:04:01;;;;;;;5.95;1.50;;;;;;;;;;4974981;28;20085;-65